Terminal Aerodrome Forecast
Issued by NWS

Home | Current Version | Previous Version | Text Only | Print | Product List | Glossary Off
Versions: 1 2 3 4 5 6 7 8 9 10 11 12 13 14 15 16 17 18 19 20

000
FTUS43 KICT 231120
TAFCNU
TAF
KCNU 231120Z 2312/2412 28008KT P6SM SCT250
     FM231600 31011KT P6SM SCT070 BKN150
     FM232100 31013KT P6SM OVC025=

USA.gov is the U.S. government's official web portal to all federal, state and local government web resources and services.